Perth International Airport
YPPH : now visible

Airfield :











YOU CAN JOIN US ON...

 
LOGIN :

Register | Disclaimer

   EN    FR    IT 

 









Legend :    VFR   Marginal VFR   IFR   Intensive IFR   Very Intensive IFR
Visi :
Ceiling :
>= 8 km
>= 3000ft
5 to 8 km
1000 to 3000 ft
1500m to 5 km
500 to 1000 ft
800 to 1500m
200 to 500 ft
< 800m
< 200 ft
Symbols :   Thunderstorms  Fog  Heavy snow  Heavy precipitations  Wind > 20 kt






- Airport Elevation : 67 ft
- IATA code : PER


YPPH - Perth International

CURRENT METAR :
  • 032130Z 03008KT CAVOK 10/00 Q1022

EXPIRED METARs :
  • 032100Z 04009KT CAVOK 09/00 Q1022
  • 032030Z 06009KT CAVOK 08/01 Q1022
  • 032000Z 06009KT CAVOK 08/01 Q1022
  • 031930Z 04007KT CAVOK 07/02 Q1022
  • 031900Z 03006KT CAVOK 07/01 Q1022

TAF TAF YPPH
Valid from the 03 at 21:00 until the 05 at 00:00 UTC


032001Z 0321/0500 05008KT CAVOK
FM040200 01015G25KT CAVOK
FM040600 36014KT CAVOK
FM040900 02008KT CAVOK
FM042200 36008KT 9999 BKN035
YMMM FIR / Oceania



MET'MAP, your aeronautical weather chart ! - Copyright ORBIFLY December 2007 - Disclaimer

ORBIFLY MET'MAP TEAM :

Programming & Development : Alexandra Zaïnal
Original concept : Baudouin d'Aumeries
Technical & hardware support : Manuel Goepfert
Assistance : Marc-Olivier Méhu




SOURCES & CREDITS :

   NOAA       Earth
Advisory